sensor_id;sensor_type;location;lat;lon;timestamp;P1;durP1;ratioP1;P2;durP2;ratioP2
36833;SDS011;48003;52.084;5.224;2023-03-15T00:00:17;3.3;;;1.3;;
36833;SDS011;48003;52.084;5.224;2023-03-15T00:01:53;2.8;;;1.3;;
36833;SDS011;48003;52.084;5.224;2023-03-15T00:05:05;2.1;;;1.0;;
36833;SDS011;48003;52.084;5.224;2023-03-15T00:06:42;5.2;;;1.3;;
36833;SDS011;48003;52.084;5.224;2023-03-15T00:08:19;4.1;;;1.2;;
36833;SDS011;48003;52.084;5.224;2023-03-15T00:11:33;3.3;;;1.11;;
36833;SDS011;48003;52.084;5.224;2023-03-15T00:13:09;4.7;;;1.2;;
36833;SDS011;48003;52.084;5.224;2023-03-15T00:14:47;3.3;;;1.2;;
36833;SDS011;48003;52.084;5.224;2023-03-15T00:16:23;2.9;;;1.3;;
36833;SDS011;48003;52.084;5.224;2023-03-15T00:19:36;3.5;;;1.3;;
36833;SDS011;48003;52.084;5.224;2023-03-15T00:21:13;3.1;;;1.11;;
36833;SDS011;48003;52.084;5.224;2023-03-15T00:22:50;3.8;;;1.11;;
36833;SDS011;48003;52.084;5.224;2023-03-15T00:26:02;4.91;;;1.11;;
36833;SDS011;48003;52.084;5.224;2023-03-15T00:27:39;3.2;;;1.2;;
36833;SDS011;48003;52.084;5.224;2023-03-15T00:29:15;3.7;;;0.9;;
36833;SDS011;48003;52.084;5.224;2023-03-15T00:32:38;1.7;;;1.11;;
36833;SDS011;48003;52.084;5.224;2023-03-15T00:34:15;2.31;;;1.11;;
36833;SDS011;48003;52.084;5.224;2023-03-15T00:35:51;4.3;;;1.0;;
36833;SDS011;48003;52.084;5.224;2023-03-15T00:37:27;3.1;;;1.0;;
36833;SDS011;48003;52.084;5.224;2023-03-15T00:40:40;2.9;;;1.0;;
36833;SDS011;48003;52.084;5.224;2023-03-15T00:42:16;3.2;;;1.0;;
36833;SDS011;48003;52.084;5.224;2023-03-15T00:43:52;3.5;;;1.0;;
36833;SDS011;48003;52.084;5.224;2023-03-15T00:47:04;6.2;;;1.11;;
36833;SDS011;48003;52.084;5.224;2023-03-15T00:48:41;3.0;;;1.0;;
36833;SDS011;48003;52.084;5.224;2023-03-15T00:50:17;4.3;;;1.11;;
36833;SDS011;48003;52.084;5.224;2023-03-15T00:53:30;3.9;;;1.0;;
36833;SDS011;48003;52.084;5.224;2023-03-15T00:55:09;3.1;;;1.11;;
36833;SDS011;48003;52.084;5.224;2023-03-15T00:56:46;2.4;;;0.9;;
36833;SDS011;48003;52.084;5.224;2023-03-15T00:58:22;4.5;;;1.0;;
36833;SDS011;48003;52.084;5.224;2023-03-15T01:01:35;4.91;;;1.11;;
36833;SDS011;48003;52.084;5.224;2023-03-15T01:03:12;5.5;;;1.11;;
36833;SDS011;48003;52.084;5.224;2023-03-15T01:04:48;2.8;;;0.8;;
36833;SDS011;48003;52.084;5.224;2023-03-15T01:08:03;3.3;;;1.0;;
36833;SDS011;48003;52.084;5.224;2023-03-15T01:09:39;3.3;;;1.0;;
36833;SDS011;48003;52.084;5.224;2023-03-15T01:11:17;3.5;;;1.0;;
36833;SDS011;48003;52.084;5.224;2023-03-15T01:12:54;1.7;;;0.8;;
36833;SDS011;48003;52.084;5.224;2023-03-15T01:16:08;2.5;;;0.9;;
36833;SDS011;48003;52.084;5.224;2023-03-15T01:17:46;2.8;;;0.9;;
36833;SDS011;48003;52.084;5.224;2023-03-15T01:19:22;2.4;;;1.11;;
36833;SDS011;48003;52.084;5.224;2023-03-15T01:22:35;4.5;;;1.11;;
36833;SDS011;48003;52.084;5.224;2023-03-15T01:24:14;5.2;;;1.0;;
36833;SDS011;48003;52.084;5.224;2023-03-15T01:25:52;2.0;;;0.8;;
36833;SDS011;48003;52.084;5.224;2023-03-15T01:29:04;2.6;;;0.9;;
36833;SDS011;48003;52.084;5.224;2023-03-15T01:30:40;4.1;;;1.2;;
36833;SDS011;48003;52.084;5.224;2023-03-15T01:32:24;3.1;;;1.0;;
36833;SDS011;48003;52.084;5.224;2023-03-15T01:34:01;4.3;;;1.11;;
36833;SDS011;48003;52.084;5.224;2023-03-15T01:37:13;2.31;;;1.11;;
36833;SDS011;48003;52.084;5.224;2023-03-15T01:38:49;2.8;;;1.11;;
36833;SDS011;48003;52.084;5.224;2023-03-15T01:40:26;4.0;;;1.4;;
36833;SDS011;48003;52.084;5.224;2023-03-15T01:43:38;4.61;;;1.2;;
36833;SDS011;48003;52.084;5.224;2023-03-15T01:45:48;6.6;;;1.11;;
36833;SDS011;48003;52.084;5.224;2023-03-15T01:47:31;4.1;;;1.2;;
36833;SDS011;48003;52.084;5.224;2023-03-15T01:49:08;4.61;;;1.11;;
36833;SDS011;48003;52.084;5.224;2023-03-15T01:50:48;3.6;;;1.3;;
36833;SDS011;48003;52.084;5.224;2023-03-15T01:54:08;2.21;;;1.2;;
36833;SDS011;48003;52.084;5.224;2023-03-15T01:55:53;5.4;;;1.11;;
36833;SDS011;48003;52.084;5.224;2023-03-15T01:57:30;3.7;;;1.0;;
36833;SDS011;48003;52.084;5.224;2023-03-15T01:59:13;4.91;;;1.4;;
36833;SDS011;48003;52.084;5.224;2023-03-15T02:02:31;3.0;;;1.11;;
36833;SDS011;48003;52.084;5.224;2023-03-15T02:04:08;3.1;;;1.11;;
36833;SDS011;48003;52.084;5.224;2023-03-15T02:05:50;7.0;;;1.2;;
36833;SDS011;48003;52.084;5.224;2023-03-15T02:07:32;3.2;;;1.0;;
36833;SDS011;48003;52.084;5.224;2023-03-15T02:10:47;4.0;;;0.9;;
36833;SDS011;48003;52.084;5.224;2023-03-15T02:12:26;3.2;;;1.2;;
36833;SDS011;48003;52.084;5.224;2023-03-15T02:14:05;4.61;;;1.11;;
36833;SDS011;48003;52.084;5.224;2023-03-15T02:15:44;4.7;;;1.11;;
36833;SDS011;48003;52.084;5.224;2023-03-15T02:19:09;2.9;;;1.11;;
36833;SDS011;48003;52.084;5.224;2023-03-15T02:20:58;4.3;;;1.4;;
36833;SDS011;48003;52.084;5.224;2023-03-15T02:22:46;4.91;;;1.11;;
36833;SDS011;48003;52.084;5.224;2023-03-15T02:24:31;2.9;;;1.3;;
36833;SDS011;48003;52.084;5.224;2023-03-15T02:26:17;6.7;;;1.5;;
36833;SDS011;48003;52.084;5.224;2023-03-15T02:29:40;4.91;;;1.3;;
36833;SDS011;48003;52.084;5.224;2023-03-15T02:31:16;3.7;;;1.2;;
36833;SDS011;48003;52.084;5.224;2023-03-15T02:32:53;3.8;;;1.2;;
36833;SDS011;48003;52.084;5.224;2023-03-15T02:34:31;4.41;;;1.2;;
36833;SDS011;48003;52.084;5.224;2023-03-15T02:37:52;2.7;;;1.0;;
36833;SDS011;48003;52.084;5.224;2023-03-15T02:39:28;3.6;;;1.0;;
36833;SDS011;48003;52.084;5.224;2023-03-15T02:41:04;5.7;;;1.4;;
36833;SDS011;48003;52.084;5.224;2023-03-15T02:44:18;5.9;;;1.3;;
36833;SDS011;48003;52.084;5.224;2023-03-15T02:45:59;3.5;;;1.11;;
36833;SDS011;48003;52.084;5.224;2023-03-15T02:47:37;7.0;;;1.4;;
36833;SDS011;48003;52.084;5.224;2023-03-15T02:49:14;4.5;;;1.11;;
36833;SDS011;48003;52.084;5.224;2023-03-15T02:52:29;5.2;;;1.2;;
36833;SDS011;48003;52.084;5.224;2023-03-15T02:54:05;4.5;;;1.4;;
36833;SDS011;48003;52.084;5.224;2023-03-15T02:55:41;7.5;;;1.3;;
36833;SDS011;48003;52.084;5.224;2023-03-15T02:58:54;3.9;;;1.0;;
36833;SDS011;48003;52.084;5.224;2023-03-15T03:00:31;2.5;;;1.0;;
36833;SDS011;48003;52.084;5.224;2023-03-15T03:02:07;4.61;;;1.5;;
36833;SDS011;48003;52.084;5.224;2023-03-15T03:05:22;3.9;;;1.2;;
36833;SDS011;48003;52.084;5.224;2023-03-15T03:06:58;4.91;;;1.5;;
36833;SDS011;48003;52.084;5.224;2023-03-15T03:08:34;5.9;;;1.4;;
36833;SDS011;48003;52.084;5.224;2023-03-15T03:10:12;3.5;;;1.3;;
36833;SDS011;48003;52.084;5.224;2023-03-15T03:13:28;3.2;;;1.4;;
36833;SDS011;48003;52.084;5.224;2023-03-15T03:15:04;4.8;;;1.7;;
36833;SDS011;48003;52.084;5.224;2023-03-15T03:16:42;3.1;;;1.3;;
36833;SDS011;48003;52.084;5.224;2023-03-15T03:19:54;5.3;;;1.5;;
36833;SDS011;48003;52.084;5.224;2023-03-15T03:21:31;4.8;;;1.3;;
36833;SDS011;48003;52.084;5.224;2023-03-15T03:23:07;5.4;;;1.5;;
36833;SDS011;48003;52.084;5.224;2023-03-15T03:24:44;5.5;;;1.5;;
36833;SDS011;48003;52.084;5.224;2023-03-15T03:27:56;5.8;;;1.6;;
36833;SDS011;48003;52.084;5.224;2023-03-15T03:29:33;5.8;;;1.5;;
36833;SDS011;48003;52.084;5.224;2023-03-15T03:31:15;5.8;;;1.6;;
36833;SDS011;48003;52.084;5.224;2023-03-15T03:34:29;5.11;;;1.6;;
36833;SDS011;48003;52.084;5.224;2023-03-15T03:36:05;5.2;;;2.1;;
36833;SDS011;48003;52.084;5.224;2023-03-15T03:37:42;5.0;;;2.0;;
36833;SDS011;48003;52.084;5.224;2023-03-15T03:39:19;5.4;;;1.7;;
36833;SDS011;48003;52.084;5.224;2023-03-15T03:42:31;5.2;;;1.7;;
36833;SDS011;48003;52.084;5.224;2023-03-15T03:44:07;3.8;;;1.9;;
36833;SDS011;48003;52.084;5.224;2023-03-15T03:45:43;11.6;;;4.41;;
36833;SDS011;48003;52.084;5.224;2023-03-15T03:48:55;8.9;;;3.5;;
36833;SDS011;48003;52.084;5.224;2023-03-15T03:50:31;4.5;;;2.0;;
36833;SDS011;48003;52.084;5.224;2023-03-15T03:52:08;5.7;;;1.7;;
36833;SDS011;48003;52.084;5.224;2023-03-15T03:55:20;5.11;;;1.9;;
36833;SDS011;48003;52.084;5.224;2023-03-15T03:56:56;7.2;;;1.6;;
36833;SDS011;48003;52.084;5.224;2023-03-15T03:58:32;5.2;;;1.7;;
36833;SDS011;48003;52.084;5.224;2023-03-15T04:01:48;4.5;;;1.9;;
36833;SDS011;48003;52.084;5.224;2023-03-15T04:03:24;5.5;;;2.0;;
36833;SDS011;48003;52.084;5.224;2023-03-15T04:05:00;5.5;;;1.8;;
36833;SDS011;48003;52.084;5.224;2023-03-15T04:06:37;5.8;;;1.9;;
36833;SDS011;48003;52.084;5.224;2023-03-15T04:09:50;5.5;;;1.9;;
36833;SDS011;48003;52.084;5.224;2023-03-15T04:11:26;4.8;;;1.8;;
36833;SDS011;48003;52.084;5.224;2023-03-15T04:13:02;4.2;;;2.0;;
36833;SDS011;48003;52.084;5.224;2023-03-15T04:16:14;5.8;;;2.1;;
36833;SDS011;48003;52.084;5.224;2023-03-15T04:17:50;4.2;;;2.0;;
36833;SDS011;48003;52.084;5.224;2023-03-15T04:19:28;4.41;;;1.9;;
36833;SDS011;48003;52.084;5.224;2023-03-15T04:22:41;7.6;;;2.1;;
36833;SDS011;48003;52.084;5.224;2023-03-15T04:24:17;7.4;;;2.21;;
36833;SDS011;48003;52.084;5.224;2023-03-15T04:25:53;10.0;;;2.31;;
36833;SDS011;48003;52.084;5.224;2023-03-15T04:30:46;4.91;;;2.1;;
36833;SDS011;48003;52.084;5.224;2023-03-15T04:32:23;5.4;;;2.4;;
36833;SDS011;48003;52.084;5.224;2023-03-15T04:33:59;6.7;;;2.21;;
36833;SDS011;48003;52.084;5.224;2023-03-15T04:37:13;7.1;;;2.6;;
36833;SDS011;48003;52.084;5.224;2023-03-15T04:38:49;4.8;;;2.1;;
36833;SDS011;48003;52.084;5.224;2023-03-15T04:40:25;4.41;;;2.31;;
36833;SDS011;48003;52.084;5.224;2023-03-15T04:43:39;7.2;;;2.5;;
36833;SDS011;48003;52.084;5.224;2023-03-15T04:45:16;8.71;;;2.9;;
36833;SDS011;48003;52.084;5.224;2023-03-15T04:46:54;6.0;;;2.9;;
36833;SDS011;48003;52.084;5.224;2023-03-15T04:48:31;6.7;;;2.5;;
36833;SDS011;48003;52.084;5.224;2023-03-15T04:51:44;6.6;;;2.8;;
36833;SDS011;48003;52.084;5.224;2023-03-15T04:53:20;4.41;;;2.5;;
36833;SDS011;48003;52.084;5.224;2023-03-15T04:54:56;6.2;;;3.1;;
36833;SDS011;48003;52.084;5.224;2023-03-15T04:58:08;6.0;;;2.9;;
36833;SDS011;48003;52.084;5.224;2023-03-15T04:59:45;6.5;;;2.9;;
36833;SDS011;48003;52.084;5.224;2023-03-15T05:01:21;7.0;;;2.9;;
36833;SDS011;48003;52.084;5.224;2023-03-15T05:03:03;7.2;;;2.7;;
36833;SDS011;48003;52.084;5.224;2023-03-15T05:06:15;5.7;;;2.9;;
36833;SDS011;48003;52.084;5.224;2023-03-15T05:07:52;6.0;;;2.4;;
36833;SDS011;48003;52.084;5.224;2023-03-15T05:09:28;7.9;;;2.9;;
36833;SDS011;48003;52.084;5.224;2023-03-15T05:12:40;5.7;;;3.2;;
36833;SDS011;48003;52.084;5.224;2023-03-15T05:14:17;6.4;;;3.2;;
36833;SDS011;48003;52.084;5.224;2023-03-15T05:15:53;6.7;;;3.4;;
36833;SDS011;48003;52.084;5.224;2023-03-15T05:19:05;5.4;;;2.9;;
36833;SDS011;48003;52.084;5.224;2023-03-15T05:20:41;5.7;;;3.1;;
36833;SDS011;48003;52.084;5.224;2023-03-15T05:22:17;9.1;;;3.4;;
36833;SDS011;48003;52.084;5.224;2023-03-15T05:25:29;6.4;;;3.3;;
36833;SDS011;48003;52.084;5.224;2023-03-15T05:27:06;5.8;;;3.2;;
36833;SDS011;48003;52.084;5.224;2023-03-15T05:28:42;9.71;;;3.4;;
36833;SDS011;48003;52.084;5.224;2023-03-15T05:30:18;6.1;;;3.3;;
36833;SDS011;48003;52.084;5.224;2023-03-15T05:33:30;6.7;;;3.5;;
36833;SDS011;48003;52.084;5.224;2023-03-15T05:35:07;5.6;;;3.2;;
36833;SDS011;48003;52.084;5.224;2023-03-15T05:36:44;6.2;;;3.6;;
36833;SDS011;48003;52.084;5.224;2023-03-15T05:39:56;8.31;;;3.6;;
36833;SDS011;48003;52.084;5.224;2023-03-15T05:41:32;10.6;;;4.1;;
36833;SDS011;48003;52.084;5.224;2023-03-15T05:43:08;9.9;;;4.1;;
36833;SDS011;48003;52.084;5.224;2023-03-15T05:46:21;8.0;;;3.2;;
36833;SDS011;48003;52.084;5.224;2023-03-15T05:47:58;7.9;;;3.2;;
36833;SDS011;48003;52.084;5.224;2023-03-15T05:49:34;7.8;;;3.1;;
36833;SDS011;48003;52.084;5.224;2023-03-15T05:51:11;6.6;;;2.7;;
36833;SDS011;48003;52.084;5.224;2023-03-15T05:54:25;9.4;;;2.5;;
36833;SDS011;48003;52.084;5.224;2023-03-15T05:56:01;8.5;;;2.21;;
36833;SDS011;48003;52.084;5.224;2023-03-15T05:57:37;12.1;;;2.6;;
36833;SDS011;48003;52.084;5.224;2023-03-15T06:00:49;10.21;;;2.21;;
36833;SDS011;48003;52.084;5.224;2023-03-15T06:02:25;8.81;;;2.31;;
36833;SDS011;48003;52.084;5.224;2023-03-15T06:04:02;11.5;;;2.4;;
36833;SDS011;48003;52.084;5.224;2023-03-15T06:07:14;8.71;;;2.1;;
36833;SDS011;48003;52.084;5.224;2023-03-15T06:08:50;11.7;;;2.31;;
36833;SDS011;48003;52.084;5.224;2023-03-15T06:10:26;14.0;;;2.21;;
36833;SDS011;48003;52.084;5.224;2023-03-15T06:12:02;7.1;;;1.9;;
36833;SDS011;48003;52.084;5.224;2023-03-15T06:15:15;7.6;;;2.6;;
36833;SDS011;48003;52.084;5.224;2023-03-15T06:16:53;12.4;;;2.31;;
36833;SDS011;48003;52.084;5.224;2023-03-15T06:18:29;12.0;;;2.5;;
36833;SDS011;48003;52.084;5.224;2023-03-15T06:21:43;11.8;;;2.6;;
36833;SDS011;48003;52.084;5.224;2023-03-15T06:23:19;9.9;;;2.31;;
36833;SDS011;48003;52.084;5.224;2023-03-15T06:24:55;9.9;;;2.21;;
36833;SDS011;48003;52.084;5.224;2023-03-15T06:28:07;8.81;;;2.21;;
36833;SDS011;48003;52.084;5.224;2023-03-15T06:29:43;10.5;;;2.4;;
36833;SDS011;48003;52.084;5.224;2023-03-15T06:31:19;9.81;;;2.4;;
36833;SDS011;48003;52.084;5.224;2023-03-15T06:34:32;11.0;;;2.21;;
36833;SDS011;48003;52.084;5.224;2023-03-15T06:36:08;10.5;;;2.7;;
36833;SDS011;48003;52.084;5.224;2023-03-15T06:37:45;11.9;;;3.2;;
36833;SDS011;48003;52.084;5.224;2023-03-15T06:39:22;7.7;;;2.4;;
36833;SDS011;48003;52.084;5.224;2023-03-15T06:42:35;11.6;;;2.7;;
36833;SDS011;48003;52.084;5.224;2023-03-15T06:44:12;14.9;;;3.4;;
36833;SDS011;48003;52.084;5.224;2023-03-15T06:45:49;12.3;;;3.6;;
36833;SDS011;48003;52.084;5.224;2023-03-15T06:49:02;9.6;;;2.31;;
36833;SDS011;48003;52.084;5.224;2023-03-15T06:50:38;9.4;;;2.31;;
36833;SDS011;48003;52.084;5.224;2023-03-15T06:52:15;11.0;;;2.5;;
36833;SDS011;48003;52.084;5.224;2023-03-15T06:53:52;11.4;;;2.1;;
36833;SDS011;48003;52.084;5.224;2023-03-15T06:57:05;9.21;;;2.1;;
36833;SDS011;48003;52.084;5.224;2023-03-15T06:58:42;7.8;;;2.0;;
36833;SDS011;48003;52.084;5.224;2023-03-15T07:00:18;9.81;;;2.4;;
36833;SDS011;48003;52.084;5.224;2023-03-15T07:03:31;9.9;;;2.21;;
36833;SDS011;48003;52.084;5.224;2023-03-15T07:05:07;9.4;;;2.5;;
36833;SDS011;48003;52.084;5.224;2023-03-15T07:06:44;10.0;;;2.21;;
36833;SDS011;48003;52.084;5.224;2023-03-15T07:09:59;10.5;;;2.4;;
36833;SDS011;48003;52.084;5.224;2023-03-15T07:11:36;10.9;;;2.8;;
36833;SDS011;48003;52.084;5.224;2023-03-15T07:13:12;9.21;;;2.21;;
36833;SDS011;48003;52.084;5.224;2023-03-15T07:14:48;11.5;;;2.0;;
36833;SDS011;48003;52.084;5.224;2023-03-15T07:18:00;10.7;;;2.21;;
36833;SDS011;48003;52.084;5.224;2023-03-15T07:19:36;7.7;;;2.0;;
36833;SDS011;48003;52.084;5.224;2023-03-15T07:21:12;9.21;;;2.31;;
36833;SDS011;48003;52.084;5.224;2023-03-15T07:24:25;12.1;;;2.31;;
36833;SDS011;48003;52.084;5.224;2023-03-15T07:26:01;8.1;;;2.0;;
36833;SDS011;48003;52.084;5.224;2023-03-15T07:27:38;6.2;;;1.7;;
36833;SDS011;48003;52.084;5.224;2023-03-15T07:30:51;10.5;;;2.21;;
36833;SDS011;48003;52.084;5.224;2023-03-15T07:32:28;8.31;;;2.31;;
36833;SDS011;48003;52.084;5.224;2023-03-15T07:34:04;9.6;;;2.31;;
36833;SDS011;48003;52.084;5.224;2023-03-15T07:37:16;9.4;;;2.1;;
36833;SDS011;48003;52.084;5.224;2023-03-15T07:38:52;8.0;;;2.1;;
36833;SDS011;48003;52.084;5.224;2023-03-15T07:40:28;10.4;;;2.31;;
36833;SDS011;48003;52.084;5.224;2023-03-15T07:42:04;6.5;;;2.21;;
36833;SDS011;48003;52.084;5.224;2023-03-15T07:45:16;12.0;;;2.5;;
36833;SDS011;48003;52.084;5.224;2023-03-15T07:46:52;6.6;;;2.1;;
36833;SDS011;48003;52.084;5.224;2023-03-15T07:48:28;11.4;;;2.31;;
36833;SDS011;48003;52.084;5.224;2023-03-15T07:51:43;10.4;;;2.4;;
36833;SDS011;48003;52.084;5.224;2023-03-15T07:53:20;11.6;;;2.4;;
36833;SDS011;48003;52.084;5.224;2023-03-15T07:54:56;10.0;;;2.0;;
36833;SDS011;48003;52.084;5.224;2023-03-15T07:58:08;12.6;;;2.31;;
36833;SDS011;48003;52.084;5.224;2023-03-15T07:59:44;6.3;;;2.1;;
36833;SDS011;48003;52.084;5.224;2023-03-15T08:01:20;10.0;;;2.5;;
36833;SDS011;48003;52.084;5.224;2023-03-15T08:02:56;8.1;;;2.21;;
36833;SDS011;48003;52.084;5.224;2023-03-15T08:06:09;10.7;;;2.6;;
36833;SDS011;48003;52.084;5.224;2023-03-15T08:07:46;10.3;;;2.6;;
36833;SDS011;48003;52.084;5.224;2023-03-15T08:09:23;8.81;;;2.1;;
36833;SDS011;48003;52.084;5.224;2023-03-15T08:12:35;8.5;;;1.9;;
36833;SDS011;48003;52.084;5.224;2023-03-15T08:14:11;9.21;;;1.8;;
36833;SDS011;48003;52.084;5.224;2023-03-15T08:15:47;6.2;;;1.7;;
36833;SDS011;48003;52.084;5.224;2023-03-15T08:18:59;12.1;;;2.21;;
36833;SDS011;48003;52.084;5.224;2023-03-15T08:20:36;8.4;;;2.9;;
36833;SDS011;48003;52.084;5.224;2023-03-15T08:22:12;8.31;;;2.0;;
36833;SDS011;48003;52.084;5.224;2023-03-15T08:25:24;8.2;;;1.8;;
36833;SDS011;48003;52.084;5.224;2023-03-15T08:27:01;8.31;;;1.6;;
36833;SDS011;48003;52.084;5.224;2023-03-15T08:28:38;5.4;;;1.4;;
36833;SDS011;48003;52.084;5.224;2023-03-15T08:30:15;7.4;;;1.7;;
36833;SDS011;48003;52.084;5.224;2023-03-15T08:33:29;7.6;;;1.4;;
36833;SDS011;48003;52.084;5.224;2023-03-15T08:35:05;6.6;;;1.4;;
36833;SDS011;48003;52.084;5.224;2023-03-15T08:36:45;8.81;;;1.4;;
36833;SDS011;48003;52.084;5.224;2023-03-15T08:39:57;6.1;;;1.4;;
36833;SDS011;48003;52.084;5.224;2023-03-15T08:41:33;5.0;;;1.4;;
36833;SDS011;48003;52.084;5.224;2023-03-15T08:43:09;6.2;;;1.4;;
36833;SDS011;48003;52.084;5.224;2023-03-15T08:44:45;7.4;;;1.5;;
36833;SDS011;48003;52.084;5.224;2023-03-15T08:47:58;8.6;;;1.4;;
36833;SDS011;48003;52.084;5.224;2023-03-15T08:49:35;7.3;;;1.5;;
36833;SDS011;48003;52.084;5.224;2023-03-15T08:51:11;8.2;;;1.5;;
36833;SDS011;48003;52.084;5.224;2023-03-15T08:54:23;5.8;;;1.4;;
36833;SDS011;48003;52.084;5.224;2023-03-15T08:56:00;6.3;;;1.5;;
36833;SDS011;48003;52.084;5.224;2023-03-15T08:57:36;6.8;;;1.4;;
36833;SDS011;48003;52.084;5.224;2023-03-15T09:00:49;9.0;;;1.3;;
36833;SDS011;48003;52.084;5.224;2023-03-15T09:02:26;5.8;;;1.3;;
36833;SDS011;48003;52.084;5.224;2023-03-15T09:04:03;5.5;;;1.2;;
36833;SDS011;48003;52.084;5.224;2023-03-15T09:07:15;9.1;;;1.7;;
36833;SDS011;48003;52.084;5.224;2023-03-15T09:08:51;6.0;;;1.3;;
36833;SDS011;48003;52.084;5.224;2023-03-15T09:10:27;6.7;;;1.6;;
36833;SDS011;48003;52.084;5.224;2023-03-15T09:12:04;5.11;;;1.2;;
36833;SDS011;48003;52.084;5.224;2023-03-15T09:15:16;6.7;;;1.4;;
36833;SDS011;48003;52.084;5.224;2023-03-15T09:16:52;7.8;;;1.2;;
36833;SDS011;48003;52.084;5.224;2023-03-15T09:18:29;6.1;;;1.4;;
36833;SDS011;48003;52.084;5.224;2023-03-15T09:21:44;6.3;;;1.3;;
36833;SDS011;48003;52.084;5.224;2023-03-15T09:23:21;9.0;;;1.5;;
36833;SDS011;48003;52.084;5.224;2023-03-15T09:24:57;8.1;;;1.6;;
36833;SDS011;48003;52.084;5.224;2023-03-15T09:28:09;7.9;;;1.7;;
36833;SDS011;48003;52.084;5.224;2023-03-15T09:29:46;7.0;;;1.3;;
36833;SDS011;48003;52.084;5.224;2023-03-15T09:31:22;4.3;;;1.3;;
36833;SDS011;48003;52.084;5.224;2023-03-15T09:32:58;5.11;;;1.4;;
36833;SDS011;48003;52.084;5.224;2023-03-15T09:36:11;10.1;;;2.0;;
36833;SDS011;48003;52.084;5.224;2023-03-15T09:37:48;5.6;;;1.5;;
36833;SDS011;48003;52.084;5.224;2023-03-15T09:39:25;7.0;;;1.6;;
36833;SDS011;48003;52.084;5.224;2023-03-15T09:42:39;6.2;;;1.6;;
36833;SDS011;48003;52.084;5.224;2023-03-15T09:44:34;5.2;;;1.2;;
36833;SDS011;48003;52.084;5.224;2023-03-15T09:46:22;5.2;;;1.2;;
36833;SDS011;48003;52.084;5.224;2023-03-15T09:48:05;8.0;;;1.3;;
36833;SDS011;48003;52.084;5.224;2023-03-15T09:49:46;7.2;;;1.5;;
36833;SDS011;48003;52.084;5.224;2023-03-15T09:53:13;7.7;;;1.9;;
36833;SDS011;48003;52.084;5.224;2023-03-15T09:54:56;7.0;;;1.3;;
36833;SDS011;48003;52.084;5.224;2023-03-15T09:56:35;10.7;;;2.7;;
36833;SDS011;48003;52.084;5.224;2023-03-15T09:58:16;6.5;;;1.5;;
36833;SDS011;48003;52.084;5.224;2023-03-15T10:01:35;7.1;;;1.3;;
36833;SDS011;48003;52.084;5.224;2023-03-15T10:03:15;8.0;;;1.6;;
36833;SDS011;48003;52.084;5.224;2023-03-15T10:04:58;6.9;;;1.6;;
36833;SDS011;48003;52.084;5.224;2023-03-15T10:06:42;5.8;;;1.2;;
36833;SDS011;48003;52.084;5.224;2023-03-15T10:10:01;5.7;;;1.4;;
36833;SDS011;48003;52.084;5.224;2023-03-15T10:11:41;5.11;;;1.3;;
36833;SDS011;48003;52.084;5.224;2023-03-15T10:13:30;8.1;;;1.6;;
36833;SDS011;48003;52.084;5.224;2023-03-15T10:15:21;6.4;;;1.2;;
36833;SDS011;48003;52.084;5.224;2023-03-15T10:17:14;3.8;;;1.2;;
36833;SDS011;48003;52.084;5.224;2023-03-15T10:19:00;8.1;;;1.6;;
36833;SDS011;48003;52.084;5.224;2023-03-15T10:22:27;10.5;;;2.1;;
36833;SDS011;48003;52.084;5.224;2023-03-15T10:24:12;8.1;;;1.2;;
36833;SDS011;48003;52.084;5.224;2023-03-15T10:25:53;7.9;;;1.7;;
36833;SDS011;48003;52.084;5.224;2023-03-15T10:27:30;6.7;;;1.4;;
36833;SDS011;48003;52.084;5.224;2023-03-15T10:30:53;9.31;;;1.9;;
36833;SDS011;48003;52.084;5.224;2023-03-15T10:32:36;9.0;;;1.2;;
36833;SDS011;48003;52.084;5.224;2023-03-15T10:34:16;8.2;;;1.9;;
36833;SDS011;48003;52.084;5.224;2023-03-15T10:35:53;7.5;;;1.3;;
36833;SDS011;48003;52.084;5.224;2023-03-15T10:39:07;7.8;;;1.3;;
36833;SDS011;48003;52.084;5.224;2023-03-15T10:40:46;8.5;;;1.5;;
36833;SDS011;48003;52.084;5.224;2023-03-15T10:42:29;7.8;;;1.2;;
36833;SDS011;48003;52.084;5.224;2023-03-15T10:44:09;7.2;;;1.2;;
36833;SDS011;48003;52.084;5.224;2023-03-15T10:47:39;5.7;;;1.3;;
36833;SDS011;48003;52.084;5.224;2023-03-15T10:49:17;8.31;;;1.6;;
36833;SDS011;48003;52.084;5.224;2023-03-15T10:50:54;4.8;;;1.5;;
36833;SDS011;48003;52.084;5.224;2023-03-15T10:52:32;9.4;;;1.9;;
36833;SDS011;48003;52.084;5.224;2023-03-15T10:55:56;7.4;;;1.11;;
36833;SDS011;48003;52.084;5.224;2023-03-15T10:57:37;5.9;;;1.0;;
36833;SDS011;48003;52.084;5.224;2023-03-15T10:59:17;5.7;;;1.3;;
36833;SDS011;48003;52.084;5.224;2023-03-15T11:00:59;7.6;;;1.11;;
36833;SDS011;48003;52.084;5.224;2023-03-15T11:04:25;7.7;;;1.2;;
36833;SDS011;48003;52.084;5.224;2023-03-15T11:06:02;8.1;;;1.2;;
36833;SDS011;48003;52.084;5.224;2023-03-15T11:07:56;6.4;;;0.9;;
36833;SDS011;48003;52.084;5.224;2023-03-15T11:09:37;7.4;;;1.0;;
36833;SDS011;48003;52.084;5.224;2023-03-15T11:11:15;6.6;;;0.9;;
36833;SDS011;48003;52.084;5.224;2023-03-15T11:14:46;4.91;;;1.0;;
36833;SDS011;48003;52.084;5.224;2023-03-15T11:16:32;5.0;;;1.0;;
36833;SDS011;48003;52.084;5.224;2023-03-15T11:18:15;5.4;;;1.0;;
36833;SDS011;48003;52.084;5.224;2023-03-15T11:19:55;7.8;;;1.4;;
36833;SDS011;48003;52.084;5.224;2023-03-15T11:23:13;6.5;;;1.3;;
36833;SDS011;48003;52.084;5.224;2023-03-15T11:24:52;7.9;;;0.9;;
36833;SDS011;48003;52.084;5.224;2023-03-15T11:26:32;4.61;;;0.7;;
36833;SDS011;48003;52.084;5.224;2023-03-15T11:28:14;3.6;;;0.9;;
36833;SDS011;48003;52.084;5.224;2023-03-15T11:33:13;4.91;;;0.9;;
36833;SDS011;48003;52.084;5.224;2023-03-15T11:35:05;4.61;;;0.7;;
36833;SDS011;48003;52.084;5.224;2023-03-15T11:36:47;6.2;;;0.9;;
36833;SDS011;48003;52.084;5.224;2023-03-15T11:38:31;4.91;;;1.3;;
36833;SDS011;48003;52.084;5.224;2023-03-15T11:41:54;7.2;;;1.11;;
36833;SDS011;48003;52.084;5.224;2023-03-15T11:43:38;5.8;;;0.9;;
36833;SDS011;48003;52.084;5.224;2023-03-15T11:45:26;4.7;;;0.9;;
36833;SDS011;48003;52.084;5.224;2023-03-15T11:47:12;4.2;;;0.9;;
36833;SDS011;48003;52.084;5.224;2023-03-15T11:49:00;4.3;;;0.9;;
36833;SDS011;48003;52.084;5.224;2023-03-15T11:54:25;4.7;;;1.0;;
36833;SDS011;48003;52.084;5.224;2023-03-15T11:56:18;4.7;;;1.0;;
36833;SDS011;48003;52.084;5.224;2023-03-15T11:57:56;4.61;;;0.9;;
36833;SDS011;48003;52.084;5.224;2023-03-15T12:00:20;4.41;;;0.8;;
36833;SDS011;48003;52.084;5.224;2023-03-15T12:02:35;5.2;;;1.2;;
36833;SDS011;48003;52.084;5.224;2023-03-15T12:04:28;4.41;;;1.0;;
36833;SDS011;48003;52.084;5.224;2023-03-15T12:06:37;4.8;;;1.2;;
36833;SDS011;48003;52.084;5.224;2023-03-15T12:08:16;6.6;;;1.0;;
36833;SDS011;48003;52.084;5.224;2023-03-15T12:09:56;4.61;;;1.11;;
36833;SDS011;48003;52.084;5.224;2023-03-15T12:11:55;5.7;;;1.0;;
36833;SDS011;48003;52.084;5.224;2023-03-15T12:15:15;5.9;;;1.11;;
36833;SDS011;48003;52.084;5.224;2023-03-15T12:17:49;4.2;;;0.9;;
36833;SDS011;48003;52.084;5.224;2023-03-15T12:19:29;5.4;;;1.0;;
36833;SDS011;48003;52.084;5.224;2023-03-15T12:21:09;3.7;;;1.0;;
36833;SDS011;48003;52.084;5.224;2023-03-15T12:22:52;5.11;;;0.8;;
36833;SDS011;48003;52.084;5.224;2023-03-15T12:24:41;6.1;;;0.9;;
36833;SDS011;48003;52.084;5.224;2023-03-15T12:28:07;5.2;;;0.9;;
36833;SDS011;48003;52.084;5.224;2023-03-15T12:29:57;3.2;;;0.9;;
36833;SDS011;48003;52.084;5.224;2023-03-15T12:31:41;4.0;;;0.8;;
36833;SDS011;48003;52.084;5.224;2023-03-15T12:33:50;5.5;;;0.9;;
36833;SDS011;48003;52.084;5.224;2023-03-15T12:35:29;2.7;;;1.0;;
36833;SDS011;48003;52.084;5.224;2023-03-15T12:37:13;4.8;;;1.0;;
36833;SDS011;48003;52.084;5.224;2023-03-15T12:40:38;3.1;;;0.9;;
36833;SDS011;48003;52.084;5.224;2023-03-15T12:42:59;4.61;;;1.0;;
36833;SDS011;48003;52.084;5.224;2023-03-15T12:44:39;3.4;;;1.11;;
36833;SDS011;48003;52.084;5.224;2023-03-15T12:46:53;5.3;;;1.8;;
36833;SDS011;48003;52.084;5.224;2023-03-15T12:49:04;6.8;;;1.8;;
36833;SDS011;48003;52.084;5.224;2023-03-15T12:50:48;3.0;;;0.8;;
36833;SDS011;48003;52.084;5.224;2023-03-15T12:52:35;6.3;;;1.11;;
36833;SDS011;48003;52.084;5.224;2023-03-15T12:54:16;3.6;;;0.9;;
36833;SDS011;48003;52.084;5.224;2023-03-15T12:55:55;4.8;;;0.9;;
36833;SDS011;48003;52.084;5.224;2023-03-15T12:59:16;3.5;;;0.9;;
36833;SDS011;48003;52.084;5.224;2023-03-15T13:01:06;5.3;;;1.11;;